Time;durP1;ratioP1;P1;durP2;ratioP2;P2;SDS_P1;SDS_P2;PMS_P1;PMS_P2;Temp;Humidity;BMP_temperature;BMP_pressure;BME280_temperature;BME280_humidity;BME280_pressure;Samples;Min_cycle;Max_cycle;Signal;HPM_P1;HPM_P2
2022/03/17 00:01:45;;;;;;;24.25;15.35;;;11.00;99.90;;;;;;5013067;28;20049;-74
2022/03/17 00:04:11;;;;;;;23.92;15.55;;;10.90;99.90;;;;;;4996783;28;20383;-74
2022/03/17 00:06:36;;;;;;;22.50;13.80;;;11.00;99.90;;;;;;5013869;28;20406;-75
2022/03/17 00:09:03;;;;;;;24.13;16.27;;;11.00;99.90;;;;;;5011580;28;20042;-74
2022/03/17 00:11:29;;;;;;;25.88;16.42;;;11.00;99.90;;;;;;4996265;28;20038;-74
2022/03/17 00:13:55;;;;;;;23.17;13.68;;;11.00;99.90;;;;;;5012262;28;20173;-74
2022/03/17 00:16:21;;;;;;;25.35;15.60;;;11.00;99.90;;;;;;5013592;28;20129;-74
2022/03/17 00:18:46;;;;;;;24.83;15.63;;;11.00;99.90;;;;;;4997355;28;20065;-74
2022/03/17 00:21:12;;;;;;;25.83;14.90;;;11.00;99.90;;;;;;5010093;28;20073;-74
2022/03/17 00:23:37;;;;;;;24.67;15.65;;;11.00;99.90;;;;;;4997623;28;20030;-74
2022/03/17 00:26:03;;;;;;;23.98;15.98;;;11.00;99.90;;;;;;5012394;28;20045;-74
2022/03/17 00:28:29;;;;;;;21.30;12.93;;;11.00;99.90;;;;;;5013820;28;20034;-74
2022/03/17 00:30:54;;;;;;;25.48;15.75;;;11.10;99.90;;;;;;5011232;28;20440;-74
2022/03/17 00:33:20;;;;;;;26.02;17.08;;;11.00;99.90;;;;;;4992799;28;20041;-74
2022/03/17 00:35:46;;;;;;;27.05;16.23;;;11.00;99.90;;;;;;5006228;28;20453;-74
2022/03/17 00:38:14;;;;;;;25.73;15.05;;;10.90;99.90;;;;;;4997034;28;20490;-74
2022/03/17 00:40:41;;;;;;;23.90;13.25;;;11.00;99.90;;;;;;5011379;28;20062;-74
2022/03/17 00:43:09;;;;;;;21.02;12.63;;;11.00;99.90;;;;;;5012298;28;20121;-74
2022/03/17 00:45:35;;;;;;;23.95;16.42;;;11.00;99.90;;;;;;4993349;28;20038;-74
2022/03/17 00:48:02;;;;;;;23.60;14.27;;;10.90;99.90;;;;;;4993079;28;20096;-74
2022/03/17 00:50:27;;;;;;;22.83;14.65;;;11.00;99.90;;;;;;4986158;28;20049;-74
2022/03/17 00:52:53;;;;;;;28.33;16.95;;;11.00;99.90;;;;;;5012196;28;20042;-74
2022/03/17 00:55:20;;;;;;;23.58;13.60;;;10.90;99.90;;;;;;4994636;28;20072;-74
2022/03/17 00:57:46;;;;;;;23.80;14.93;;;11.00;99.90;;;;;;4993695;28;20038;-74
2022/03/17 01:00:16;;;;;;;25.23;15.70;;;11.00;99.90;;;;;;4998689;28;20073;-74
2022/03/17 01:02:50;;;;;;;27.60;17.60;;;10.90;99.90;;;;;;4996022;28;20133;-74
2022/03/17 01:05:17;;;;;;;24.25;16.50;;;10.90;99.90;;;;;;5011809;28;20046;-74
2022/03/17 01:07:43;;;;;;;23.90;15.60;;;10.90;99.90;;;;;;4996505;28;20121;-74
2022/03/17 01:10:12;;;;;;;27.25;16.52;;;10.90;99.90;;;;;;4994822;28;20540;-74
2022/03/17 01:12:38;;;;;;;26.00;15.27;;;11.00;99.90;;;;;;4994626;28;20561;-74
2022/03/17 01:15:05;;;;;;;26.40;17.42;;;10.90;99.90;;;;;;4995851;28;20046;-74
2022/03/17 01:17:31;;;;;;;23.90;16.67;;;10.90;99.90;;;;;;4996582;28;20406;-75
2022/03/17 01:19:57;;;;;;;23.17;14.75;;;10.80;99.90;;;;;;5011645;28;20041;-74
2022/03/17 01:22:23;;;;;;;26.83;17.75;;;10.90;99.90;;;;;;5012596;28;20049;-74
2022/03/17 01:24:51;;;;;;;25.35;17.50;;;10.80;99.90;;;;;;5011766;28;20046;-74
2022/03/17 01:27:20;;;;;;;27.42;18.08;;;10.90;99.90;;;;;;4992789;28;20050;-74
2022/03/17 01:29:47;;;;;;;23.27;15.82;;;10.90;99.90;;;;;;4976596;28;20053;-74
2022/03/17 01:32:13;;;;;;;25.02;16.80;;;10.90;99.90;;;;;;5012394;28;20088;-74
2022/03/17 01:34:38;;;;;;;25.95;17.55;;;10.80;99.90;;;;;;5010811;28;20038;-74
2022/03/17 01:37:04;;;;;;;20.40;11.57;;;10.80;99.90;;;;;;5010651;28;20046;-74
2022/03/17 01:39:29;;;;;;;22.95;14.55;;;10.80;99.90;;;;;;5010416;28;20120;-73
2022/03/17 01:41:59;;;;;;;24.35;15.27;;;10.90;99.90;;;;;;4991537;28;20407;-74
2022/03/17 01:44:25;;;;;;;24.83;16.95;;;10.80;99.90;;;;;;5028727;28;20041;-73
2022/03/17 01:49:38;;;;;;;25.23;15.23;;;10.80;99.90;;;;;;5011485;28;20050;-74
2022/03/17 01:52:05;;;;;;;26.17;17.58;;;10.90;99.90;;;;;;4994933;28;20045;-74
2022/03/17 01:54:31;;;;;;;25.65;15.80;;;10.90;99.90;;;;;;5012257;28;20048;-74
2022/03/17 01:56:58;;;;;;;20.20;12.20;;;10.80;99.90;;;;;;5027523;28;20120;-73
2022/03/17 01:59:26;;;;;;;27.15;17.33;;;10.90;99.90;;;;;;5012040;28;20053;-73
2022/03/17 02:01:53;;;;;;;26.83;17.48;;;10.80;99.90;;;;;;4995660;28;20049;-74
2022/03/17 02:04:19;;;;;;;24.75;16.83;;;10.80;99.90;;;;;;5011849;28;20490;-74
2022/03/17 02:06:45;;;;;;;22.73;13.95;;;10.90;99.90;;;;;;4995773;28;20049;-74
2022/03/17 02:09:11;;;;;;;24.75;15.50;;;10.90;99.90;;;;;;5010110;28;20483;-74
2022/03/17 02:14:25;;;;;;;26.10;14.65;;;10.90;99.90;;;;;;5010928;28;20046;-74
2022/03/17 02:16:51;;;;;;;27.40;16.38;;;10.90;99.90;;;;;;5011952;28;20045;-74
2022/03/17 02:19:18;;;;;;;26.27;17.15;;;10.90;99.90;;;;;;5010979;28;20081;-74
2022/03/17 02:21:44;;;;;;;20.80;12.13;;;10.90;99.90;;;;;;5011951;28;20057;-74
2022/03/17 02:26:57;;;;;;;23.92;14.70;;;10.90;99.90;;;;;;5011747;28;20050;-74
2022/03/17 02:29:23;;;;;;;25.00;15.57;;;11.00;99.90;;;;;;5010891;28;20072;-74
2022/03/17 02:31:50;;;;;;;22.02;13.75;;;11.00;99.90;;;;;;5011871;28;20034;-74
2022/03/17 02:34:19;;;;;;;24.27;14.80;;;11.00;99.90;;;;;;5010782;28;20132;-74
2022/03/17 02:36:49;;;;;;;23.33;14.15;;;11.10;99.90;;;;;;5011710;28;20053;-74
2022/03/17 02:39:17;;;;;;;25.98;17.30;;;11.10;99.90;;;;;;4993695;28;20046;-74
2022/03/17 02:41:42;;;;;;;22.77;14.30;;;11.00;99.90;;;;;;5005674;28;20046;-75
2022/03/17 02:44:09;;;;;;;26.85;17.33;;;11.10;99.90;;;;;;4992180;28;20104;-74
2022/03/17 02:46:34;;;;;;;22.35;13.00;;;11.00;99.90;;;;;;4996467;28;20033;-74
2022/03/17 02:49:00;;;;;;;23.48;15.60;;;11.00;99.90;;;;;;4994593;28;20088;-74
2022/03/17 02:51:26;;;;;;;25.15;16.38;;;11.10;99.90;;;;;;4994201;28;20037;-74
2022/03/17 02:53:51;;;;;;;22.05;13.55;;;11.10;99.90;;;;;;4998898;28;20038;-74
2022/03/17 02:56:17;;;;;;;22.60;14.52;;;11.10;99.90;;;;;;5008584;28;20038;-74
2022/03/17 02:58:43;;;;;;;25.27;15.98;;;11.00;99.90;;;;;;5010420;28;20053;-74
2022/03/17 03:01:09;;;;;;;26.25;15.75;;;11.00;99.90;;;;;;4998412;28;20038;-74
2022/03/17 03:03:34;;;;;;;23.58;13.93;;;11.00;99.90;;;;;;4998799;28;20505;-74
2022/03/17 03:06:00;;;;;;;28.00;17.98;;;11.00;99.90;;;;;;4994384;28;20034;-74
2022/03/17 03:08:26;;;;;;;27.30;16.13;;;11.00;99.90;;;;;;4998081;28;20038;-74
2022/03/17 03:10:52;;;;;;;22.70;13.32;;;11.00;99.90;;;;;;5011901;28;20070;-74
2022/03/17 03:13:17;;;;;;;25.85;14.35;;;11.00;99.90;;;;;;4998688;28;20069;-74
2022/03/17 03:15:43;;;;;;;23.65;15.93;;;11.00;99.90;;;;;;5013496;28;20124;-74
2022/03/17 03:18:09;;;;;;;25.65;15.57;;;11.00;99.90;;;;;;4997109;28;20475;-74
2022/03/17 03:20:34;;;;;;;23.77;15.95;;;10.90;99.90;;;;;;5014473;28;20513;-74
2022/03/17 03:23:00;;;;;;;27.50;17.60;;;10.90;99.90;;;;;;5009402;28;20037;-74
2022/03/17 03:25:25;;;;;;;25.42;17.02;;;11.00;99.90;;;;;;4988992;28;20128;-74
2022/03/17 03:27:51;;;;;;;27.55;16.98;;;10.90;99.90;;;;;;4985207;28;20072;-75
2022/03/17 03:30:18;;;;;;;23.48;15.48;;;10.90;99.90;;;;;;5013925;28;20038;-74
2022/03/17 03:32:45;;;;;;;26.38;18.02;;;11.00;99.90;;;;;;5012476;28;20494;-74
2022/03/17 03:37:56;;;;;;;28.13;19.52;;;10.90;99.90;;;;;;5013936;28;20049;-74
2022/03/17 03:40:22;;;;;;;16.52;10.15;;;10.90;99.90;;;;;;5009431;28;20049;-74
2022/03/17 03:42:48;;;;;;;18.08;10.90;;;11.00;99.90;;;;;;4998382;28;20538;-74
2022/03/17 03:45:14;;;;;;;23.17;13.57;;;11.00;99.90;;;;;;5013589;28;20132;-74
2022/03/17 03:47:39;;;;;;;27.30;18.95;;;11.00;99.90;;;;;;5014167;28;20038;-74
2022/03/17 03:50:05;;;;;;;21.27;13.57;;;10.90;99.90;;;;;;5013408;28;20481;-74
2022/03/17 03:52:31;;;;;;;25.40;15.82;;;11.00;99.90;;;;;;4997230;28;20029;-74
2022/03/17 03:54:56;;;;;;;28.05;19.83;;;11.00;99.90;;;;;;5014198;28;20095;-75
2022/03/17 03:57:22;;;;;;;24.08;16.50;;;10.90;99.90;;;;;;5029786;28;20041;-74
2022/03/17 03:59:48;;;;;;;27.40;18.83;;;11.00;99.90;;;;;;5030403;28;20119;-74
2022/03/17 04:02:14;;;;;;;26.40;17.15;;;11.10;99.90;;;;;;4996617;28;20045;-74
2022/03/17 04:04:40;;;;;;;26.65;18.52;;;11.00;99.90;;;;;;5012846;28;20111;-75
2022/03/17 04:07:08;;;;;;;27.10;19.35;;;11.00;99.90;;;;;;5027537;28;20073;-75
2022/03/17 04:09:39;;;;;;;25.48;18.27;;;11.00;99.90;;;;;;4998083;28;20380;-75
2022/03/17 04:12:07;;;;;;;28.00;19.30;;;11.00;99.90;;;;;;4996777;28;20053;-75
2022/03/17 04:14:33;;;;;;;25.80;18.33;;;11.00;99.90;;;;;;5013865;28;20049;-75
2022/03/17 04:16:59;;;;;;;29.02;19.92;;;11.00;99.90;;;;;;4990871;28;20038;-75
2022/03/17 04:19:26;;;;;;;27.23;18.25;;;11.10;99.90;;;;;;4994100;28;20525;-74
2022/03/17 04:21:52;;;;;;;27.13;18.65;;;11.10;99.90;;;;;;5013470;28;20052;-74
2022/03/17 04:24:18;;;;;;;29.10;19.98;;;11.10;99.90;;;;;;5013660;28;20045;-75
2022/03/17 04:26:45;;;;;;;29.23;19.23;;;11.10;99.90;;;;;;5011592;28;20041;-75
2022/03/17 04:29:11;;;;;;;29.33;20.65;;;11.20;99.90;;;;;;5013011;28;20128;-75
2022/03/17 04:31:38;;;;;;;26.65;17.63;;;11.10;99.90;;;;;;5013820;28;20398;-75
2022/03/17 04:34:04;;;;;;;27.20;18.23;;;11.20;99.90;;;;;;5013740;28;20446;-75
2022/03/17 04:36:31;;;;;;;27.42;18.38;;;11.10;99.90;;;;;;5011748;28;20092;-74
2022/03/17 04:38:57;;;;;;;32.25;23.88;;;11.10;99.90;;;;;;5013267;28;20042;-75
2022/03/17 04:41:22;;;;;;;32.00;22.02;;;11.00;99.90;;;;;;4995969;28;20060;-74
2022/03/17 04:43:48;;;;;;;33.30;23.02;;;11.00;99.90;;;;;;4997184;28;20045;-74
2022/03/17 04:46:14;;;;;;;32.22;20.58;;;10.90;99.90;;;;;;5012420;28;20426;-74
2022/03/17 04:48:39;;;;;;;30.13;22.55;;;10.90;99.90;;;;;;4997021;28;20034;-74
2022/03/17 04:51:06;;;;;;;30.23;22.27;;;10.90;99.90;;;;;;5012614;28;20037;-74
2022/03/17 04:53:34;;;;;;;30.55;20.35;;;10.80;99.90;;;;;;5013114;28;20041;-74
2022/03/17 04:56:01;;;;;;;33.67;23.50;;;10.90;99.90;;;;;;5026375;28;20033;-74
2022/03/17 04:58:28;;;;;;;34.67;23.83;;;10.80;99.90;;;;;;5012929;28;20042;-74
2022/03/17 05:00:55;;;;;;;35.85;24.98;;;10.80;99.90;;;;;;4996425;28;20053;-74
2022/03/17 05:03:21;;;;;;;33.13;22.05;;;10.80;99.90;;;;;;4995582;28;20045;-74
2022/03/17 05:05:47;;;;;;;32.83;23.35;;;10.80;99.90;;;;;;4996804;28;20034;-74
2022/03/17 05:08:13;;;;;;;34.38;23.50;;;10.70;99.90;;;;;;4983435;28;20038;-74
2022/03/17 05:10:39;;;;;;;35.88;26.25;;;10.70;99.90;;;;;;5012256;28;20120;-74
2022/03/17 05:13:06;;;;;;;37.50;25.88;;;10.70;99.90;;;;;;5012233;28;20560;-74
2022/03/17 05:15:32;;;;;;;37.20;26.08;;;10.60;99.90;;;;;;4992489;28;20038;-73
2022/03/17 05:17:58;;;;;;;37.97;27.25;;;10.60;99.90;;;;;;4976613;28;20053;-73
2022/03/17 05:20:24;;;;;;;36.10;25.35;;;10.50;99.90;;;;;;5010436;28;20041;-73
2022/03/17 05:22:50;;;;;;;39.70;27.23;;;10.50;99.90;;;;;;4995638;28;20048;-73
2022/03/17 05:25:16;;;;;;;39.45;24.17;;;10.40;99.90;;;;;;4990960;28;20053;-73
2022/03/17 05:27:44;;;;;;;28.08;21.30;;;10.40;99.90;;;;;;4999109;28;20042;-73
2022/03/17 05:30:14;;;;;;;17.20;12.25;;;10.10;99.90;;;;;;5011950;28;20091;-73
2022/03/17 05:32:40;;;;;;;10.07;6.53;;;9.80;99.90;;;;;;4996410;28;20069;-73
2022/03/17 05:35:07;;;;;;;9.38;6.13;;;9.70;99.90;;;;;;5028185;28;20042;-73
2022/03/17 05:37:34;;;;;;;8.48;4.97;;;9.50;99.90;;;;;;5028807;28;20045;-73
2022/03/17 05:40:02;;;;;;;7.90;5.47;;;9.40;99.90;;;;;;5011586;28;20133;-73
2022/03/17 05:42:28;;;;;;;9.57;5.82;;;9.20;99.90;;;;;;4996009;28;20045;-73
2022/03/17 05:44:54;;;;;;;9.75;5.43;;;9.10;99.90;;;;;;5028072;28;20074;-73
2022/03/17 05:47:20;;;;;;;8.63;5.57;;;9.00;99.90;;;;;;4995831;28;20034;-73
2022/03/17 05:49:47;;;;;;;10.50;5.75;;;8.90;99.90;;;;;;5026760;28;20559;-73
2022/03/17 05:52:13;;;;;;;9.43;5.80;;;8.90;99.90;;;;;;4992133;28;20053;-72
2022/03/17 05:54:39;;;;;;;9.38;5.57;;;8.90;99.90;;;;;;5009205;28;20045;-72
2022/03/17 05:57:04;;;;;;;10.82;6.50;;;8.70;99.90;;;;;;5008422;28;20042;-73
2022/03/17 05:59:30;;;;;;;10.40;5.75;;;8.70;99.90;;;;;;4995118;28;20487;-72
2022/03/17 06:01:56;;;;;;;10.25;5.70;;;8.70;99.90;;;;;;4995774;28;20042;-73
2022/03/17 06:04:22;;;;;;;12.13;7.13;;;8.70;99.90;;;;;;5012148;28;20048;-73
2022/03/17 06:06:48;;;;;;;12.98;8.02;;;8.60;99.90;;;;;;5012208;28;20510;-73
2022/03/17 06:09:13;;;;;;;13.90;8.10;;;8.60;99.90;;;;;;5012021;28;20073;-73
2022/03/17 06:11:39;;;;;;;15.05;8.50;;;8.50;99.90;;;;;;5012312;28;20077;-73
2022/03/17 06:14:06;;;;;;;16.27;8.38;;;8.50;99.90;;;;;;5012010;28;20034;-73
2022/03/17 06:16:32;;;;;;;15.50;8.25;;;8.40;99.90;;;;;;5012021;28;20538;-73
2022/03/17 06:18:57;;;;;;;14.57;8.82;;;8.40;99.90;;;;;;4995586;28;20119;-73
2022/03/17 06:21:23;;;;;;;16.45;9.10;;;8.50;99.90;;;;;;4995627;28;20411;-73
2022/03/17 06:23:50;;;;;;;15.70;8.80;;;8.50;99.90;;;;;;4994247;28;20045;-73
2022/03/17 06:26:15;;;;;;;17.30;9.60;;;8.40;99.90;;;;;;4995741;28;20442;-73
2022/03/17 06:28:41;;;;;;;15.93;9.10;;;8.50;99.90;;;;;;4998720;28;20042;-73
2022/03/17 06:31:06;;;;;;;18.67;8.50;;;8.40;99.90;;;;;;5014993;28;20402;-73
2022/03/17 06:33:32;;;;;;;17.77;8.10;;;8.30;99.90;;;;;;5016005;28;20072;-73
2022/03/17 06:35:58;;;;;;;13.88;6.53;;;8.30;99.90;;;;;;5015693;28;20030;-73
2022/03/17 06:38:23;;;;;;;13.95;6.10;;;8.50;99.90;;;;;;5015537;28;20045;-73
2022/03/17 06:40:50;;;;;;;17.45;6.82;;;8.40;99.90;;;;;;5015484;28;20096;-73
2022/03/17 06:43:16;;;;;;;15.68;7.07;;;8.30;99.90;;;;;;5015585;28;20034;-73
2022/03/17 06:45:42;;;;;;;15.05;6.78;;;8.30;99.90;;;;;;5015546;28;20134;-73
2022/03/17 06:48:08;;;;;;;14.55;6.95;;;8.30;99.90;;;;;;5013211;28;20038;-73
2022/03/17 06:50:34;;;;;;;14.75;6.43;;;8.30;99.90;;;;;;5011407;28;20483;-73
2022/03/17 06:53:00;;;;;;;12.82;6.30;;;8.30;99.90;;;;;;5013855;28;20038;-73
2022/03/17 06:55:25;;;;;;;12.75;6.00;;;8.30;99.90;;;;;;5015480;28;20064;-73
2022/03/17 06:57:51;;;;;;;13.68;5.80;;;8.20;99.90;;;;;;4996371;28;20042;-73
2022/03/17 07:00:18;;;;;;;15.73;5.40;;;8.20;99.90;;;;;;5012622;28;20037;-73
2022/03/17 07:02:44;;;;;;;12.13;4.93;;;8.20;99.90;;;;;;5014093;28;20542;-73
2022/03/17 07:05:10;;;;;;;12.38;4.80;;;8.20;99.90;;;;;;4999016;28;20132;-73
2022/03/17 07:07:36;;;;;;;11.88;4.85;;;8.30;99.90;;;;;;5012342;28;20049;-75
2022/03/17 07:10:05;;;;;;;12.13;3.90;;;8.30;99.90;;;;;;5014466;28;20038;-80
2022/03/17 07:12:31;;;;;;;11.68;3.65;;;8.20;99.90;;;;;;5030269;28;20045;-73
2022/03/17 07:14:57;;;;;;;8.95;2.80;;;8.20;99.90;;;;;;5015016;28;20053;-73
2022/03/17 07:17:22;;;;;;;9.75;3.00;;;8.30;99.90;;;;;;5014158;28;20506;-73
2022/03/17 07:19:58;;;;;;;10.18;3.13;;;8.20;99.90;;;;;;5014711;28;20046;-73
2022/03/17 07:22:24;;;;;;;8.32;2.30;;;8.30;99.90;;;;;;5013885;28;20091;-73
2022/03/17 07:24:50;;;;;;;9.50;2.38;;;8.20;99.90;;;;;;5014835;28;20053;-73
2022/03/17 07:27:16;;;;;;;8.00;2.33;;;8.30;99.90;;;;;;5013093;28;20502;-73
2022/03/17 07:29:41;;;;;;;7.50;2.05;;;8.10;99.90;;;;;;4996806;28;20042;-73
2022/03/17 07:32:07;;;;;;;9.52;2.25;;;8.10;99.90;;;;;;4996006;28;20038;-73
2022/03/17 07:34:33;;;;;;;9.77;2.20;;;8.20;99.90;;;;;;5013342;28;20068;-73
2022/03/17 07:36:58;;;;;;;9.98;2.03;;;8.10;99.90;;;;;;5013637;28;20064;-75
2022/03/17 07:39:24;;;;;;;11.93;1.92;;;8.20;99.90;;;;;;4996969;28;20061;-73
2022/03/17 07:41:49;;;;;;;9.80;2.28;;;8.20;99.90;;;;;;4998124;28;20049;-74
2022/03/17 07:44:16;;;;;;;8.82;1.80;;;8.20;99.90;;;;;;5014593;28;20425;-73
2022/03/17 07:46:42;;;;;;;11.68;2.00;;;8.10;99.90;;;;;;5014350;28;20054;-74
2022/03/17 07:49:08;;;;;;;11.60;2.63;;;8.20;99.90;;;;;;5014192;28;20034;-74
2022/03/17 07:51:34;;;;;;;12.88;1.92;;;8.10;99.90;;;;;;4997971;28;20133;-74
2022/03/17 07:53:59;;;;;;;9.25;1.98;;;8.00;99.90;;;;;;4997939;28;20121;-74
2022/03/17 07:56:25;;;;;;;11.52;1.85;;;8.20;99.90;;;;;;5014464;28;20405;-74
2022/03/17 07:58:51;;;;;;;7.50;1.92;;;8.20;99.90;;;;;;5014081;28;20048;-73
2022/03/17 08:01:17;;;;;;;8.90;1.73;;;8.20;99.90;;;;;;5013961;28;20052;-73
2022/03/17 08:03:43;;;;;;;7.97;1.27;;;8.20;99.90;;;;;;5014031;28;20557;-73
2022/03/17 08:06:10;;;;;;;11.00;2.10;;;8.10;99.90;;;;;;5013880;28;20080;-74
2022/03/17 08:08:37;;;;;;;10.43;1.63;;;8.00;99.90;;;;;;4997669;28;20048;-74
2022/03/17 08:11:02;;;;;;;12.15;2.03;;;8.00;99.90;;;;;;4997529;28;20038;-73
2022/03/17 08:13:28;;;;;;;8.98;1.73;;;8.10;99.90;;;;;;4997873;28;20197;-73
2022/03/17 08:15:54;;;;;;;8.13;1.60;;;8.10;99.90;;;;;;4997493;28;20038;-73
2022/03/17 08:18:20;;;;;;;9.63;1.98;;;8.00;99.90;;;;;;5013814;28;20050;-74
2022/03/17 08:20:46;;;;;;;9.95;1.75;;;8.00;99.90;;;;;;4997431;28;20091;-73
2022/03/17 08:23:15;;;;;;;8.70;1.70;;;8.10;99.90;;;;;;5013699;28;20073;-74
2022/03/17 08:25:41;;;;;;;10.07;1.98;;;8.20;99.90;;;;;;5013642;28;20046;-74
2022/03/17 08:28:08;;;;;;;8.55;1.75;;;8.20;99.90;;;;;;5013504;28;20049;-74
2022/03/17 08:30:36;;;;;;;12.00;1.95;;;8.20;99.90;;;;;;4997073;28;20045;-74
2022/03/17 08:33:02;;;;;;;8.13;1.70;;;8.20;99.90;;;;;;5013507;28;20052;-73
2022/03/17 08:35:27;;;;;;;11.23;1.85;;;8.20;99.90;;;;;;4997381;28;20034;-74
2022/03/17 08:37:53;;;;;;;11.85;1.77;;;8.10;99.90;;;;;;4997037;28;20045;-74
2022/03/17 08:40:19;;;;;;;10.70;1.70;;;8.20;99.90;;;;;;5013157;28;20483;-73
2022/03/17 08:42:45;;;;;;;11.48;1.58;;;8.20;99.90;;;;;;5013613;28;20045;-74
2022/03/17 08:50:41;;;;;;;14.20;2.13;;;8.20;99.90;;;;;;5029549;28;20045;-74
2022/03/17 08:53:07;;;;;;;10.10;1.60;;;8.30;99.90;;;;;;5029675;28;20038;-74
2022/03/17 08:55:34;;;;;;;13.23;2.42;;;8.30;99.90;;;;;;4996791;28;20128;-75
2022/03/17 08:58:00;;;;;;;11.07;1.63;;;8.30;99.90;;;;;;4996813;28;20052;-74
2022/03/17 09:00:25;;;;;;;8.90;1.45;;;8.30;99.90;;;;;;5013229;28;20569;-74
2022/03/17 09:02:55;;;;;;;10.75;1.88;;;8.20;99.90;;;;;;5013242;28;20084;-74
2022/03/17 09:05:20;;;;;;;9.55;1.73;;;8.10;99.90;;;;;;5012999;28;20084;-74
2022/03/17 09:07:46;;;;;;;10.07;1.60;;;8.20;99.90;;;;;;4996466;28;20073;-74
2022/03/17 09:10:12;;;;;;;10.40;1.60;;;8.20;99.90;;;;;;5012743;28;20038;-74
2022/03/17 09:12:38;;;;;;;10.18;1.67;;;8.20;99.90;;;;;;5012844;28;20065;-74
2022/03/17 09:15:05;;;;;;;10.75;1.98;;;8.10;99.90;;;;;;4996477;28;20072;-74
2022/03/17 09:17:30;;;;;;;10.68;2.05;;;8.20;99.90;;;;;;4996666;28;20049;-74
2022/03/17 09:19:56;;;;;;;11.93;1.90;;;8.10;99.90;;;;;;5012561;28;20045;-74
2022/03/17 09:22:21;;;;;;;12.00;1.70;;;8.10;99.90;;;;;;5012644;28;20145;-74
2022/03/17 09:24:48;;;;;;;12.80;1.77;;;8.20;99.90;;;;;;5012580;28;20414;-75
2022/03/17 09:27:17;;;;;;;12.07;1.63;;;8.30;99.90;;;;;;5012540;28;20117;-74
2022/03/17 09:29:42;;;;;;;8.45;1.75;;;8.40;99.90;;;;;;4996221;28;20048;-74
2022/03/17 09:32:09;;;;;;;11.45;2.08;;;8.40;99.90;;;;;;4996135;28;20475;-74
2022/03/17 09:34:36;;;;;;;11.73;2.67;;;8.40;99.90;;;;;;5012510;28;20052;-74
2022/03/17 09:37:02;;;;;;;11.82;2.97;;;8.30;99.90;;;;;;5012747;28;20046;-74
2022/03/17 09:39:49;;;;;;;12.05;1.70;;;8.30;99.90;;;;;;4996109;28;20037;-73
2022/03/17 09:42:16;;;;;;;16.98;2.05;;;8.30;99.90;;;;;;5011883;28;20128;-74
2022/03/17 09:44:42;;;;;;;10.15;2.17;;;8.30;99.90;;;;;;5012597;28;20406;-74
2022/03/17 09:47:09;;;;;;;10.10;1.63;;;8.30;99.90;;;;;;5028727;28;20053;-74
2022/03/17 09:49:37;;;;;;;11.13;1.90;;;8.30;99.90;;;;;;5012474;28;20398;-74
2022/03/17 09:52:10;;;;;;;12.00;1.80;;;8.30;99.90;;;;;;4995810;28;20033;-74
2022/03/17 09:54:35;;;;;;;9.88;1.85;;;8.30;99.90;;;;;;5012277;28;20517;-74
2022/03/17 09:57:01;;;;;;;10.88;1.73;;;8.30;99.90;;;;;;5012210;28;20045;-74
2022/03/17 09:59:27;;;;;;;11.43;2.00;;;8.30;99.90;;;;;;5012441;28;20061;-74
2022/03/17 10:01:53;;;;;;;11.25;2.10;;;8.40;99.90;;;;;;5011511;28;20057;-74
2022/03/17 10:04:19;;;;;;;10.82;1.85;;;8.50;99.90;;;;;;4995677;28;20040;-74
2022/03/17 10:06:46;;;;;;;13.77;2.60;;;8.60;99.90;;;;;;4995675;28;20128;-74
2022/03/17 10:09:12;;;;;;;9.85;2.35;;;8.70;99.90;;;;;;5012111;28;20069;-74
2022/03/17 10:11:37;;;;;;;8.85;1.92;;;8.80;99.90;;;;;;5011969;28;20069;-74
2022/03/17 10:14:05;;;;;;;12.48;2.38;;;8.80;99.90;;;;;;5012289;28;20045;-74
2022/03/17 10:16:31;;;;;;;10.30;1.52;;;8.90;99.90;;;;;;5012297;28;20042;-74
2022/03/17 10:19:00;;;;;;;8.73;1.60;;;8.90;99.90;;;;;;4995628;28;20042;-75
2022/03/17 10:21:27;;;;;;;13.10;2.05;;;9.00;99.90;;;;;;4995822;28;20045;-74
2022/03/17 10:24:02;;;;;;;9.73;1.67;;;9.10;99.90;;;;;;4995858;28;20053;-75
2022/03/17 10:26:35;;;;;;;7.50;1.60;;;9.20;99.90;;;;;;4995568;28;20129;-74
2022/03/17 10:29:17;;;;;;;11.55;2.03;;;9.40;99.90;;;;;;5028405;28;20038;-74
2022/03/17 10:32:00;;;;;;;11.32;2.53;;;9.60;99.90;;;;;;4995836;28;20479;-74
2022/03/17 10:34:32;;;;;;;9.85;1.38;;;9.60;99.90;;;;;;5011925;28;20044;-75
2022/03/17 10:37:07;;;;;;;7.43;1.77;;;9.80;99.90;;;;;;4995555;28;20037;-74
2022/03/17 10:39:47;;;;;;;8.85;1.52;;;9.90;99.90;;;;;;5011638;28;20041;-74
2022/03/17 10:42:20;;;;;;;7.97;1.50;;;9.90;99.90;;;;;;5012060;28;20391;-75
2022/03/17 10:44:49;;;;;;;12.27;1.80;;;10.00;99.90;;;;;;5011823;28;20044;-74
2022/03/17 10:47:42;;;;;;;9.15;1.50;;;10.10;99.90;;;;;;5011690;28;20089;-74
2022/03/17 10:50:15;;;;;;;8.07;1.70;;;10.20;99.90;;;;;;5011716;28;20040;-75
2022/03/17 10:53:00;;;;;;;9.10;1.73;;;10.40;99.90;;;;;;4995291;28;20038;-74
2022/03/17 10:55:26;;;;;;;7.78;1.48;;;10.40;99.90;;;;;;5011954;28;20060;-74
2022/03/17 10:57:58;;;;;;;11.80;2.65;;;10.40;99.90;;;;;;5011706;28;20042;-74
2022/03/17 11:00:28;;;;;;;8.43;1.30;;;10.40;99.90;;;;;;5011990;28;20041;-75
2022/03/17 11:02:58;;;;;;;15.43;2.08;;;10.50;99.90;;;;;;5027944;28;20041;-75
2022/03/17 11:05:30;;;;;;;9.75;1.52;;;10.40;99.90;;;;;;4995269;28;20136;-75
2022/03/17 11:07:58;;;;;;;12.25;1.70;;;10.30;99.90;;;;;;5011468;28;20073;-74
2022/03/17 11:10:24;;;;;;;8.93;1.70;;;10.30;99.90;;;;;;4995474;28;20042;-75
2022/03/17 11:12:50;;;;;;;9.02;1.80;;;10.40;99.90;;;;;;5011718;28;20455;-75
2022/03/17 11:15:27;;;;;;;12.57;2.05;;;10.50;99.90;;;;;;5013986;28;20030;-74
2022/03/17 11:17:58;;;;;;;10.27;1.48;;;10.50;99.90;;;;;;5031771;28;20030;-75
2022/03/17 11:20:23;;;;;;;9.45;1.70;;;10.40;99.90;;;;;;4998606;28;20048;-75
2022/03/17 11:23:11;;;;;;;7.30;1.30;;;10.30;99.70;;;;;;4998772;28;20053;-74
2022/03/17 11:25:37;;;;;;;10.30;2.03;;;10.30;99.90;;;;;;5014823;28;20073;-75
2022/03/17 11:28:04;;;;;;;9.82;1.48;;;10.30;99.90;;;;;;5014702;28;20084;-75
2022/03/17 11:30:47;;;;;;;14.25;2.47;;;10.20;99.90;;;;;;5014732;28;20038;-75
2022/03/17 11:33:36;;;;;;;10.68;2.00;;;10.40;99.90;;;;;;5014882;28;20112;-75
2022/03/17 11:36:11;;;;;;;13.50;2.22;;;10.50;99.90;;;;;;4998290;28;20038;-75
2022/03/17 11:38:39;;;;;;;10.23;1.83;;;10.40;99.90;;;;;;5014597;28;20517;-75
2022/03/17 11:41:06;;;;;;;11.73;1.88;;;10.50;99.90;;;;;;5014365;28;20058;-75
2022/03/17 11:43:47;;;;;;;9.88;1.60;;;10.60;99.90;;;;;;4998127;28;20136;-75
2022/03/17 11:46:20;;;;;;;12.40;2.20;;;10.50;99.90;;;;;;4998303;28;20184;-75
2022/03/17 11:48:47;;;;;;;13.15;1.85;;;10.40;99.90;;;;;;5030885;28;20052;-74
2022/03/17 11:51:15;;;;;;;13.20;2.05;;;10.50;99.90;;;;;;4997994;28;20526;-75
2022/03/17 11:53:52;;;;;;;10.95;2.78;;;10.60;99.90;;;;;;4997915;28;20037;-75
2022/03/17 11:56:45;;;;;;;12.95;1.88;;;10.70;99.90;;;;;;5014484;28;20077;-75
2022/03/17 11:59:16;;;;;;;10.05;1.80;;;10.80;99.90;;;;;;4997911;28;20038;-75
2022/03/17 12:01:49;;;;;;;11.82;2.28;;;10.70;99.30;;;;;;4997768;28;20067;-75
2022/03/17 12:04:30;;;;;;;9.63;2.20;;;10.80;99.90;;;;;;4998059;28;20080;-75
2022/03/17 12:07:10;;;;;;;9.48;1.55;;;10.80;99.90;;;;;;5014036;28;20038;-75
2022/03/17 12:09:37;;;;;;;8.82;2.13;;;10.90;99.90;;;;;;4997685;28;20053;-75
2022/03/17 12:12:25;;;;;;;7.40;1.63;;;11.00;99.90;;;;;;4997510;28;20205;-74
2022/03/17 12:15:00;;;;;;;9.90;1.67;;;11.00;99.70;;;;;;5014040;28;20512;-75
2022/03/17 12:17:28;;;;;;;8.88;1.70;;;11.00;97.50;;;;;;4997478;28;20042;-75
2022/03/17 12:20:05;;;;;;;8.95;1.70;;;11.10;99.90;;;;;;4997531;28;20058;-75
2022/03/17 12:22:39;;;;;;;9.48;3.40;;;11.10;99.60;;;;;;5013605;28;20042;-74
2022/03/17 12:25:08;;;;;;;8.50;2.03;;;11.00;98.10;;;;;;4996821;28;20141;-75
2022/03/17 12:27:36;;;;;;;9.27;1.50;;;11.20;99.90;;;;;;4997190;28;20042;-75
2022/03/17 12:30:06;;;;;;;12.80;2.45;;;11.20;99.90;;;;;;5013571;28;20080;-75
2022/03/17 12:32:34;;;;;;;11.68;2.00;;;11.30;99.00;;;;;;4997410;28;20159;-74
2022/03/17 12:35:01;;;;;;;9.85;1.83;;;11.40;99.90;;;;;;4997179;28;20077;-75
2022/03/17 12:37:29;;;;;;;9.85;1.60;;;11.50;99.00;;;;;;4997185;28;20038;-75
2022/03/17 12:39:57;;;;;;;11.13;2.40;;;11.50;98.60;;;;;;4996947;28;20058;-75
2022/03/17 12:42:30;;;;;;;11.23;2.30;;;11.50;98.10;;;;;;4997111;28;20056;-75
2022/03/17 12:45:09;;;;;;;11.02;1.98;;;11.60;99.90;;;;;;5013376;28;20042;-75
2022/03/17 12:47:36;;;;;;;8.43;1.70;;;11.50;97.60;;;;;;4996918;28;20069;-75
2022/03/17 12:50:11;;;;;;;6.72;1.70;;;11.50;98.10;;;;;;5029814;28;20120;-75
2022/03/17 12:52:40;;;;;;;10.85;1.75;;;11.60;98.90;;;;;;4997099;28;20434;-75
2022/03/17 12:55:09;;;;;;;10.35;2.08;;;11.70;99.60;;;;;;4996710;28;20041;-76
2022/03/17 12:57:37;;;;;;;12.10;1.70;;;11.60;98.10;;;;;;4996772;28;20042;-76